George Allen — WDF9749 — position and weather

sailwx.info

Track history (hours):
 
Tides and Currents Weather Stations Pressure Air Temp Water Temp Dewpoint Dewpoint Depression Visibility Wind Speed Wind Dir Waves Ship Positions

George Allen

Owner: Blessey Enterprises, Inc., Harahan, LA. More information available from US FCC via Universal Licensing System and Coast Guard Vessel Documentation Center.

Last reported at 2017-Oct-01 21:53 UTC. Time now 2017-Oct-19 12:49 UTC.
Position N 29°50' W 092°00'.
Warning: this ship's position is 17 days out of date.

Length 23 m; draft 3.5 m.

Type: Towing. MMSI: 367508440.

Date/timePositionNaut miles runAvg speedWind from/ knotsBaromVisibWave heightAir tempDewpointWater temp
2017-Oct-01 21:53N 29°50' W 092°00'2 5.7
2017-Oct-01 21:30N 29°49' W 092°03'3 5.7
2017-Oct-01 21:00N 29°48' W 092°06'3 5.6
2017-Oct-01 20:30N 29°47' W 092°09'2 4.6
2017-Oct-01 20:00N 29°47' W 092°12'1 1.7
2017-Oct-01 19:30N 29°47' W 092°12'1 1.2
2017-Oct-01 19:00N 29°47' W 092°13'1 2.4
2017-Oct-01 18:30N 29°48' W 092°14'0 0.1
2017-Oct-01 18:00N 29°48' W 092°14'0 0.6
2017-Oct-01 17:30N 29°48' W 092°15'1 1.5
2017-Oct-01 17:00N 29°48' W 092°15'0 0.9
2017-Oct-01 16:30N 29°49' W 092°16'2 4.4
2017-Oct-01 16:00N 29°50' W 092°18'39 4.4
2017-Oct-01 07:15N 29°56' W 093°02'1 4.9
2017-Oct-01 07:00N 29°56' W 093°04'2 4.6
2017-Oct-01 06:30N 29°56' W 093°06'2 4.8
2017-Oct-01 06:00N 29°56' W 093°09'2 4.6
2017-Oct-01 05:30N 29°58' W 093°11'2 4.7
2017-Oct-01 05:00N 29°59' W 093°13'2 4.2
2017-Oct-01 04:30N 30°01' W 093°14'1 1.8
2017-Oct-01 04:00N 30°02' W 093°15'2 4.1
2017-Oct-01 03:30N 30°04' W 093°16'2 4.6
2017-Oct-01 03:00N 30°05' W 093°18'3 0.1
2017-Sep-30 02:00N 30°07' W 093°20'2 5.1
2017-Sep-30 01:30N 30°05' W 093°20'2 4.6
2017-Sep-30 01:00N 30°04' W 093°22'0 0.1
2017-Sep-30 00:30N 30°04' W 093°22'0 0.0
2017-Sep-30 00:00N 30°04' W 093°22'0 0.0
2017-Sep-29 23:30N 30°04' W 093°22'0 0.0
2017-Sep-29 23:00N 30°04' W 093°22'0 0.0
2017-Sep-29 22:30N 30°04' W 093°22'0 0.0
2017-Sep-29 22:00N 30°04' W 093°22'0 0.0
2017-Sep-29 21:30N 30°04' W 093°22'0 0.0
2017-Sep-29 21:00N 30°04' W 093°22'0 0.0
2017-Sep-29 20:30N 30°04' W 093°22'0 0.0
2017-Sep-29 20:00N 30°04' W 093°22'0 0.0
2017-Sep-29 19:30N 30°04' W 093°22'0 0.0
2017-Sep-29 19:00N 30°04' W 093°22'0 0.0
2017-Sep-29 18:30N 30°04' W 093°22'0 0.0
2017-Sep-29 18:00N 30°04' W 093°22'0 0.0
2017-Sep-29 17:30N 30°04' W 093°22'0 0.0
2017-Sep-29 17:00N 30°04' W 093°22'0 0.0
2017-Sep-29 16:30N 30°04' W 093°22'0 0.0
2017-Sep-29 16:00N 30°04' W 093°22'0 0.0
2017-Sep-29 15:30N 30°04' W 093°22'0 0.0
2017-Sep-29 15:00N 30°04' W 093°22'0 0.0
2017-Sep-29 14:30N 30°04' W 093°22'0 0.0
2017-Sep-29 14:00N 30°04' W 093°22'0 0.0
2017-Sep-29 13:30N 30°04' W 093°22'0 0.0
2017-Sep-29 13:00N 30°04' W 093°22'0 0.0
2017-Sep-29 12:30N 30°04' W 093°22'0 0.0
2017-Sep-29 12:00N 30°04' W 093°22'0 0.0
2017-Sep-29 11:30N 30°04' W 093°22'0 0.0
2017-Sep-29 11:00N 30°04' W 093°22'0 0.0
2017-Sep-29 10:30N 30°04' W 093°22'0 0.0
2017-Sep-29 10:00N 30°04' W 093°22'0 0.0
2017-Sep-29 09:30N 30°04' W 093°22'0 0.0
2017-Sep-29 09:00N 30°04' W 093°22'0 0.0
2017-Sep-29 08:30N 30°04' W 093°22'0 0.0
2017-Sep-29 08:00N 30°04' W 093°22'0 0.0
2017-Sep-29 07:30N 30°04' W 093°22'0 0.0
2017-Sep-29 07:00N 30°04' W 093°22'0 0.0
2017-Sep-29 06:30N 30°04' W 093°22'0 0.0
2017-Sep-29 06:00N 30°04' W 093°22'0 0.1
2017-Sep-29 05:30N 30°04' W 093°22'0 0.0
2017-Sep-29 05:00N 30°04' W 093°22'0 0.0
2017-Sep-29 04:30N 30°04' W 093°22'0 0.0
2017-Sep-29 04:00N 30°04' W 093°22'0 0.0
2017-Sep-29 03:30N 30°04' W 093°22'0 0.0
2017-Sep-29 03:00N 30°04' W 093°22'0 0.0
2017-Sep-29 02:30N 30°04' W 093°22'0 0.0
2017-Sep-29 02:00N 30°04' W 093°22'0 0.0
2017-Sep-29 01:30N 30°04' W 093°22'0 0.0
2017-Sep-29 01:00N 30°04' W 093°22'0 0.0
2017-Sep-29 00:30N 30°04' W 093°22'0 0.0
2017-Sep-29 00:00N 30°04' W 093°22'0 0.0
2017-Sep-28 23:30N 30°04' W 093°22'0 0.0
2017-Sep-28 23:00N 30°04' W 093°22'0 0.0
2017-Sep-28 22:30N 30°04' W 093°22'0 0.0
2017-Sep-28 22:00N 30°04' W 093°22'0 0.0
2017-Sep-28 21:30N 30°04' W 093°22'1 1.7
2017-Sep-28 21:00N 30°04' W 093°23'1 1.6
2017-Sep-28 20:30N 30°04' W 093°24'3 5.9
2017-Sep-28 20:00N 30°04' W 093°27'3 5.7
2017-Sep-28 19:30N 30°04' W 093°31'3 5.6
2017-Sep-28 19:00N 30°04' W 093°34'3 5.8
2017-Sep-28 18:30N 30°04' W 093°37'  
2017-Sep-26 03:46N 29°31' W 094°53'2 7.0
2017-Sep-26 03:30N 29°32' W 094°54'4 7.4
2017-Sep-26 03:00N 29°35' W 094°56'4 7.5
2017-Sep-26 02:30N 29°39' W 094°58'4 7.0
2017-Sep-26 01:56N 29°42' W 095°01'6 0.7
2017-Sep-25 16:49N 29°47' W 095°05'2 0.1
2017-Sep-24 17:42N 29°46' W 095°05'1 3.4
2017-Sep-24 17:30N 29°45' W 095°04'2 2.9
2017-Sep-24 16:58N 29°44' W 095°03'2 3.0
2017-Sep-24 16:22N 29°43' W 095°01'1 2.9
2017-Sep-24 16:00N 29°42' W 095°01'2 3.9
2017-Sep-24 15:31N 29°41' W 094°59'3 5.6
2017-Sep-24 15:01N 29°38' W 094°58'3 5.7
2017-Sep-24 14:30N 29°36' W 094°57'3 5.9
2017-Sep-24 14:00N 29°33' W 094°55'3 5.7
2017-Sep-24 13:30N 29°31' W 094°53'  
Track history (hours):
 
Tides and Currents Weather Stations Pressure Air Temp Water Temp Dewpoint Dewpoint Depression Visibility Wind Speed Wind Dir Waves Ship Positions

George Allen

Owner: Blessey Enterprises, Inc., Harahan, LA. More information available from US FCC via Universal Licensing System and Coast Guard Vessel Documentation Center.

Last reported at 2017-Oct-01 21:53 UTC. Time now 2017-Oct-19 12:49 UTC.
Position N 29°50' W 092°00'.
Warning: this ship's position is 17 days out of date.

Length 23 m; draft 3.5 m.

Type: Towing. MMSI: 367508440.

Date/timePositionNaut miles runAvg speedWind from/ knotsBaromVisibWave heightAir tempDewpointWater temp
2017-Oct-01 21:53N 29°50' W 092°00'2 5.7
2017-Oct-01 21:30N 29°49' W 092°03'3 5.7
2017-Oct-01 21:00N 29°48' W 092°06'3 5.6
2017-Oct-01 20:30N 29°47' W 092°09'2 4.6
2017-Oct-01 20:00N 29°47' W 092°12'1 1.7
2017-Oct-01 19:30N 29°47' W 092°12'1 1.2
2017-Oct-01 19:00N 29°47' W 092°13'1 2.4
2017-Oct-01 18:30N 29°48' W 092°14'0 0.1
2017-Oct-01 18:00N 29°48' W 092°14'0 0.6
2017-Oct-01 17:30N 29°48' W 092°15'1 1.5
2017-Oct-01 17:00N 29°48' W 092°15'0 0.9
2017-Oct-01 16:30N 29°49' W 092°16'2 4.4
2017-Oct-01 16:00N 29°50' W 092°18'39 4.4
2017-Oct-01 07:15N 29°56' W 093°02'1 4.9
2017-Oct-01 07:00N 29°56' W 093°04'2 4.6
2017-Oct-01 06:30N 29°56' W 093°06'2 4.8
2017-Oct-01 06:00N 29°56' W 093°09'2 4.6
2017-Oct-01 05:30N 29°58' W 093°11'2 4.7
2017-Oct-01 05:00N 29°59' W 093°13'2 4.2
2017-Oct-01 04:30N 30°01' W 093°14'1 1.8
2017-Oct-01 04:00N 30°02' W 093°15'2 4.1
2017-Oct-01 03:30N 30°04' W 093°16'2 4.6
2017-Oct-01 03:00N 30°05' W 093°18'3 0.1
2017-Sep-30 02:00N 30°07' W 093°20'2 5.1
2017-Sep-30 01:30N 30°05' W 093°20'2 4.6
2017-Sep-30 01:00N 30°04' W 093°22'0 0.1
2017-Sep-30 00:30N 30°04' W 093°22'0 0.0
2017-Sep-30 00:00N 30°04' W 093°22'0 0.0
2017-Sep-29 23:30N 30°04' W 093°22'0 0.0
2017-Sep-29 23:00N 30°04' W 093°22'0 0.0
2017-Sep-29 22:30N 30°04' W 093°22'0 0.0
2017-Sep-29 22:00N 30°04' W 093°22'0 0.0
2017-Sep-29 21:30N 30°04' W 093°22'0 0.0
2017-Sep-29 21:00N 30°04' W 093°22'0 0.0
2017-Sep-29 20:30N 30°04' W 093°22'0 0.0
2017-Sep-29 20:00N 30°04' W 093°22'0 0.0
2017-Sep-29 19:30N 30°04' W 093°22'0 0.0
2017-Sep-29 19:00N 30°04' W 093°22'0 0.0
2017-Sep-29 18:30N 30°04' W 093°22'0 0.0
2017-Sep-29 18:00N 30°04' W 093°22'0 0.0
2017-Sep-29 17:30N 30°04' W 093°22'0 0.0
2017-Sep-29 17:00N 30°04' W 093°22'0 0.0
2017-Sep-29 16:30N 30°04' W 093°22'0 0.0
2017-Sep-29 16:00N 30°04' W 093°22'0 0.0
2017-Sep-29 15:30N 30°04' W 093°22'0 0.0
2017-Sep-29 15:00N 30°04' W 093°22'0 0.0
2017-Sep-29 14:30N 30°04' W 093°22'0 0.0
2017-Sep-29 14:00N 30°04' W 093°22'0 0.0
2017-Sep-29 13:30N 30°04' W 093°22'0 0.0
2017-Sep-29 13:00N 30°04' W 093°22'0 0.0
2017-Sep-29 12:30N 30°04' W 093°22'0 0.0
2017-Sep-29 12:00N 30°04' W 093°22'0 0.0
2017-Sep-29 11:30N 30°04' W 093°22'0 0.0
2017-Sep-29 11:00N 30°04' W 093°22'0 0.0
2017-Sep-29 10:30N 30°04' W 093°22'0 0.0
2017-Sep-29 10:00N 30°04' W 093°22'0 0.0
2017-Sep-29 09:30N 30°04' W 093°22'0 0.0
2017-Sep-29 09:00N 30°04' W 093°22'0 0.0
2017-Sep-29 08:30N 30°04' W 093°22'0 0.0
2017-Sep-29 08:00N 30°04' W 093°22'0 0.0
2017-Sep-29 07:30N 30°04' W 093°22'0 0.0
2017-Sep-29 07:00N 30°04' W 093°22'0 0.0
2017-Sep-29 06:30N 30°04' W 093°22'0 0.0
2017-Sep-29 06:00N 30°04' W 093°22'0 0.1
2017-Sep-29 05:30N 30°04' W 093°22'0 0.0
2017-Sep-29 05:00N 30°04' W 093°22'0 0.0
2017-Sep-29 04:30N 30°04' W 093°22'0 0.0
2017-Sep-29 04:00N 30°04' W 093°22'0 0.0
2017-Sep-29 03:30N 30°04' W 093°22'0 0.0
2017-Sep-29 03:00N 30°04' W 093°22'0 0.0
2017-Sep-29 02:30N 30°04' W 093°22'0 0.0
2017-Sep-29 02:00N 30°04' W 093°22'0 0.0
2017-Sep-29 01:30N 30°04' W 093°22'0 0.0
2017-Sep-29 01:00N 30°04' W 093°22'0 0.0
2017-Sep-29 00:30N 30°04' W 093°22'0 0.0
2017-Sep-29 00:00N 30°04' W 093°22'0 0.0
2017-Sep-28 23:30N 30°04' W 093°22'0 0.0
2017-Sep-28 23:00N 30°04' W 093°22'0 0.0
2017-Sep-28 22:30N 30°04' W 093°22'0 0.0
2017-Sep-28 22:00N 30°04' W 093°22'0 0.0
2017-Sep-28 21:30N 30°04' W 093°22'1 1.7
2017-Sep-28 21:00N 30°04' W 093°23'1 1.6
2017-Sep-28 20:30N 30°04' W 093°24'3 5.9
2017-Sep-28 20:00N 30°04' W 093°27'3 5.7
2017-Sep-28 19:30N 30°04' W 093°31'3 5.6
2017-Sep-28 19:00N 30°04' W 093°34'3 5.8
2017-Sep-28 18:30N 30°04' W 093°37'  
2017-Sep-26 03:46N 29°31' W 094°53'2 7.0
2017-Sep-26 03:30N 29°32' W 094°54'4 7.4
2017-Sep-26 03:00N 29°35' W 094°56'4 7.5
2017-Sep-26 02:30N 29°39' W 094°58'4 7.0
2017-Sep-26 01:56N 29°42' W 095°01'6 0.7
2017-Sep-25 16:49N 29°47' W 095°05'2 0.1
2017-Sep-24 17:42N 29°46' W 095°05'1 3.4
2017-Sep-24 17:30N 29°45' W 095°04'2 2.9
2017-Sep-24 16:58N 29°44' W 095°03'2 3.0
2017-Sep-24 16:22N 29°43' W 095°01'1 2.9
2017-Sep-24 16:00N 29°42' W 095°01'2 3.9
2017-Sep-24 15:31N 29°41' W 094°59'3 5.6
2017-Sep-24 15:01N 29°38' W 094°58'3 5.7
2017-Sep-24 14:30N 29°36' W 094°57'3 5.9
2017-Sep-24 14:00N 29°33' W 094°55'3 5.7
2017-Sep-24 13:30N 29°31' W 094°53'  

Dump ship's entire track history